sensor_id;sensor_type;location;lat;lon;timestamp;pressure;altitude;pressure_sealevel;temperature;humidity
35649;BME280;21768;48.562;13.414;2024-01-11T00:01:58;98297.31;;;-2.73;64.17
35649;BME280;21768;48.562;13.414;2024-01-11T00:04:24;98293.25;;;-2.73;64.31
35649;BME280;21768;48.562;13.414;2024-01-11T00:06:50;98289.72;;;-2.75;64.14
35649;BME280;21768;48.562;13.414;2024-01-11T00:09:16;98285.06;;;-2.79;64.18
35649;BME280;21768;48.562;13.414;2024-01-11T00:11:41;98288.91;;;-2.81;64.18
35649;BME280;21768;48.562;13.414;2024-01-11T00:14:06;98286.25;;;-2.83;64.30
35649;BME280;21768;48.562;13.414;2024-01-11T00:16:32;98290.28;;;-2.83;64.25
35649;BME280;21768;48.562;13.414;2024-01-11T00:18:57;98287.13;;;-2.82;64.27
35649;BME280;21768;48.562;13.414;2024-01-11T00:21:23;98288.22;;;-2.80;64.09
35649;BME280;21768;48.562;13.414;2024-01-11T00:23:49;98292.97;;;-2.82;64.27
35649;BME280;21768;48.562;13.414;2024-01-11T00:26:14;98292.47;;;-2.79;64.20
35649;BME280;21768;48.562;13.414;2024-01-11T00:28:40;98294.25;;;-2.78;64.15
35649;BME280;21768;48.562;13.414;2024-01-11T00:31:05;98296.91;;;-2.77;64.03
35649;BME280;21768;48.562;13.414;2024-01-11T00:33:31;98297.81;;;-2.76;64.11
35649;BME280;21768;48.562;13.414;2024-01-11T00:35:56;98300.38;;;-2.82;64.17
35649;BME280;21768;48.562;13.414;2024-01-11T00:38:21;98298.88;;;-2.87;64.42
35649;BME280;21768;48.562;13.414;2024-01-11T00:40:47;98302.03;;;-2.88;64.49
35649;BME280;21768;48.562;13.414;2024-01-11T00:43:12;98294.44;;;-2.89;64.52
35649;BME280;21768;48.562;13.414;2024-01-11T00:45:37;98298.97;;;-2.92;64.34
35649;BME280;21768;48.562;13.414;2024-01-11T00:48:04;98289.09;;;-2.92;64.41
35649;BME280;21768;48.562;13.414;2024-01-11T00:50:29;98294.22;;;-2.91;64.19
35649;BME280;21768;48.562;13.414;2024-01-11T00:52:55;98287.31;;;-2.93;64.17
35649;BME280;21768;48.562;13.414;2024-01-11T00:55:20;98293.63;;;-2.95;64.06
35649;BME280;21768;48.562;13.414;2024-01-11T00:57:45;98289.69;;;-3.00;64.22
35649;BME280;21768;48.562;13.414;2024-01-11T01:00:11;98287.03;;;-3.02;64.12
35649;BME280;21768;48.562;13.414;2024-01-11T01:02:40;98289.97;;;-3.04;64.29
35649;BME280;21768;48.562;13.414;2024-01-11T01:05:06;98288.22;;;-3.05;64.40
35649;BME280;21768;48.562;13.414;2024-01-11T01:07:32;98286.22;;;-3.08;64.42
35649;BME280;21768;48.562;13.414;2024-01-11T01:09:57;98282.66;;;-3.10;64.47
35649;BME280;21768;48.562;13.414;2024-01-11T01:12:22;98285.13;;;-3.10;64.56
35649;BME280;21768;48.562;13.414;2024-01-11T01:14:50;98296.28;;;-3.06;64.53
35649;BME280;21768;48.562;13.414;2024-01-11T01:17:15;98293.34;;;-3.04;64.44
35649;BME280;21768;48.562;13.414;2024-01-11T01:19:41;98300.47;;;-3.00;64.09
35649;BME280;21768;48.562;13.414;2024-01-11T01:22:06;98299.16;;;-3.03;64.10
35649;BME280;21768;48.562;13.414;2024-01-11T01:24:31;98301.91;;;-3.08;64.18
35649;BME280;21768;48.562;13.414;2024-01-11T01:26:58;98312.97;;;-3.11;64.36
35649;BME280;21768;48.562;13.414;2024-01-11T01:29:24;98315.44;;;-3.11;64.38
35649;BME280;21768;48.562;13.414;2024-01-11T01:31:49;98315.91;;;-3.14;64.38
35649;BME280;21768;48.562;13.414;2024-01-11T01:34:15;98319.75;;;-3.16;64.27
35649;BME280;21768;48.562;13.414;2024-01-11T01:36:40;98315.09;;;-3.20;64.57
35649;BME280;21768;48.562;13.414;2024-01-11T01:39:06;98311.75;;;-3.20;64.78
35649;BME280;21768;48.562;13.414;2024-01-11T01:41:31;98306.53;;;-3.16;64.59
35649;BME280;21768;48.562;13.414;2024-01-11T01:43:56;98319.06;;;-3.15;64.28
35649;BME280;21768;48.562;13.414;2024-01-11T01:46:23;98317.97;;;-3.17;64.27
35649;BME280;21768;48.562;13.414;2024-01-11T01:48:50;98318.97;;;-3.22;64.36
35649;BME280;21768;48.562;13.414;2024-01-11T01:51:17;98318.97;;;-3.22;64.51
35649;BME280;21768;48.562;13.414;2024-01-11T01:53:43;98304.88;;;-3.23;64.36
35649;BME280;21768;48.562;13.414;2024-01-11T01:56:09;98308.41;;;-3.21;64.17
35649;BME280;21768;48.562;13.414;2024-01-11T01:58:35;98312.06;;;-3.24;64.39
35649;BME280;21768;48.562;13.414;2024-01-11T02:01:01;98314.53;;;-3.24;64.43
35649;BME280;21768;48.562;13.414;2024-01-11T02:03:28;98319.25;;;-3.26;64.41
35649;BME280;21768;48.562;13.414;2024-01-11T02:05:54;98322.41;;;-3.27;64.43
35649;BME280;21768;48.562;13.414;2024-01-11T02:08:22;98317.47;;;-3.27;64.63
35649;BME280;21768;48.562;13.414;2024-01-11T02:10:51;98326.19;;;-3.23;64.53
35649;BME280;21768;48.562;13.414;2024-01-11T02:13:16;98315.69;;;-3.28;64.52
35649;BME280;21768;48.562;13.414;2024-01-11T02:15:43;98321.31;;;-3.29;64.70
35649;BME280;21768;48.562;13.414;2024-01-11T02:18:10;98318.16;;;-3.28;64.39
35649;BME280;21768;48.562;13.414;2024-01-11T02:20:35;98318.84;;;-3.29;64.56
35649;BME280;21768;48.562;13.414;2024-01-11T02:23:05;98328.25;;;-3.26;64.46
35649;BME280;21768;48.562;13.414;2024-01-11T02:25:31;98319.25;;;-3.26;64.41
35649;BME280;21768;48.562;13.414;2024-01-11T02:27:57;98316.00;;;-3.32;64.32
35649;BME280;21768;48.562;13.414;2024-01-11T02:30:22;98311.34;;;-3.36;64.56
35649;BME280;21768;48.562;13.414;2024-01-11T02:32:49;98305.09;;;-3.39;64.64
35649;BME280;21768;48.562;13.414;2024-01-11T02:35:15;98312.69;;;-3.38;64.70
35649;BME280;21768;48.562;13.414;2024-01-11T02:37:41;98300.66;;;-3.42;64.72
35649;BME280;21768;48.562;13.414;2024-01-11T02:40:07;98316.34;;;-3.42;64.78
35649;BME280;21768;48.562;13.414;2024-01-11T02:42:34;98313.38;;;-3.39;64.87
35649;BME280;21768;48.562;13.414;2024-01-11T02:44:59;98310.25;;;-3.38;64.53
35649;BME280;21768;48.562;13.414;2024-01-11T02:47:25;98313.59;;;-3.37;64.64
35649;BME280;21768;48.562;13.414;2024-01-11T02:49:51;98322.16;;;-3.41;64.49
35649;BME280;21768;48.562;13.414;2024-01-11T02:52:16;98315.44;;;-3.42;64.62
35649;BME280;21768;48.562;13.414;2024-01-11T02:54:41;98307.84;;;-3.44;64.54
35649;BME280;21768;48.562;13.414;2024-01-11T02:57:07;98301.66;;;-3.47;64.54
35649;BME280;21768;48.562;13.414;2024-01-11T02:59:32;98303.72;;;-3.50;64.46
35649;BME280;21768;48.562;13.414;2024-01-11T03:01:57;98301.03;;;-3.52;64.56
35649;BME280;21768;48.562;13.414;2024-01-11T03:04:23;98301.53;;;-3.54;64.63
35649;BME280;21768;48.562;13.414;2024-01-11T03:06:48;98299.06;;;-3.54;64.68
35649;BME280;21768;48.562;13.414;2024-01-11T03:09:13;98292.34;;;-3.55;64.75
35649;BME280;21768;48.562;13.414;2024-01-11T03:11:39;98293.72;;;-3.57;64.64
35649;BME280;21768;48.562;13.414;2024-01-11T03:14:04;98295.78;;;-3.60;64.79
35649;BME280;21768;48.562;13.414;2024-01-11T03:16:30;98291.53;;;-3.61;64.75
35649;BME280;21768;48.562;13.414;2024-01-11T03:18:55;98286.59;;;-3.61;64.65
35649;BME280;21768;48.562;13.414;2024-01-11T03:21:20;98287.50;;;-3.61;64.67
35649;BME280;21768;48.562;13.414;2024-01-11T03:23:46;98283.44;;;-3.60;64.75
35649;BME280;21768;48.562;13.414;2024-01-11T03:26:16;98294.41;;;-3.58;64.54
35649;BME280;21768;48.562;13.414;2024-01-11T03:28:41;98285.22;;;-3.59;64.66
35649;BME280;21768;48.562;13.414;2024-01-11T03:31:10;98287.09;;;-3.64;64.50
35649;BME280;21768;48.562;13.414;2024-01-11T03:33:35;98291.81;;;-3.65;64.73
35649;BME280;21768;48.562;13.414;2024-01-11T03:36:08;98284.41;;;-3.65;64.69
35649;BME280;21768;48.562;13.414;2024-01-11T03:38:33;98285.09;;;-3.66;64.60
35649;BME280;21768;48.562;13.414;2024-01-11T03:40:59;98275.91;;;-3.67;64.60
35649;BME280;21768;48.562;13.414;2024-01-11T03:43:24;98276.81;;;-3.67;64.71
35649;BME280;21768;48.562;13.414;2024-01-11T03:45:50;98290.63;;;-3.62;64.45
35649;BME280;21768;48.562;13.414;2024-01-11T03:48:15;98292.41;;;-3.61;64.36
35649;BME280;21768;48.562;13.414;2024-01-11T03:50:40;98286.19;;;-3.64;64.47
35649;BME280;21768;48.562;13.414;2024-01-11T03:53:06;98279.97;;;-3.68;64.45
35649;BME280;21768;48.562;13.414;2024-01-11T03:55:31;98286.78;;;-3.72;64.39
35649;BME280;21768;48.562;13.414;2024-01-11T03:57:56;98283.69;;;-3.77;64.67
35649;BME280;21768;48.562;13.414;2024-01-11T04:00:22;98278.75;;;-3.77;64.44
35649;BME280;21768;48.562;13.414;2024-01-11T04:02:47;98281.44;;;-3.75;64.61
35649;BME280;21768;48.562;13.414;2024-01-11T04:05:12;98280.53;;;-3.76;64.47
35649;BME280;21768;48.562;13.414;2024-01-11T04:07:38;98282.81;;;-3.78;64.49
35649;BME280;21768;48.562;13.414;2024-01-11T04:10:03;98282.13;;;-3.77;64.60
35649;BME280;21768;48.562;13.414;2024-01-11T04:12:29;98291.56;;;-3.80;64.67
35649;BME280;21768;48.562;13.414;2024-01-11T04:14:54;98288.69;;;-3.83;64.56
35649;BME280;21768;48.562;13.414;2024-01-11T04:17:20;98283.34;;;-3.86;64.76
35649;BME280;21768;48.562;13.414;2024-01-11T04:19:45;98281.56;;;-3.87;64.65
35649;BME280;21768;48.562;13.414;2024-01-11T04:22:10;98280.88;;;-3.86;64.57
35649;BME280;21768;48.562;13.414;2024-01-11T04:24:36;98278.69;;;-3.90;64.43
35649;BME280;21768;48.562;13.414;2024-01-11T04:27:01;98277.41;;;-3.93;64.48
35649;BME280;21768;48.562;13.414;2024-01-11T04:29:27;98273.66;;;-3.97;64.52
35649;BME280;21768;48.562;13.414;2024-01-11T04:31:52;98270.31;;;-3.97;64.62
35649;BME280;21768;48.562;13.414;2024-01-11T04:34:17;98280.06;;;-3.92;64.69
35649;BME280;21768;48.562;13.414;2024-01-11T04:36:43;98270.81;;;-3.87;64.47
35649;BME280;21768;48.562;13.414;2024-01-11T04:39:08;98271.31;;;-3.90;64.26
35649;BME280;21768;48.562;13.414;2024-01-11T04:41:36;98263.97;;;-3.95;64.42
35649;BME280;21768;48.562;13.414;2024-01-11T04:44:02;98273.25;;;-4.00;64.42
35649;BME280;21768;48.562;13.414;2024-01-11T04:46:27;98275.03;;;-3.99;64.54
35649;BME280;21768;48.562;13.414;2024-01-11T04:48:53;98268.13;;;-4.01;64.50
35649;BME280;21768;48.562;13.414;2024-01-11T04:51:19;98265.66;;;-4.01;64.46
35649;BME280;21768;48.562;13.414;2024-01-11T04:53:45;98270.66;;;-4.07;64.53
35649;BME280;21768;48.562;13.414;2024-01-11T04:56:14;98276.53;;;-4.12;64.51
35649;BME280;21768;48.562;13.414;2024-01-11T04:58:42;98282.75;;;-4.08;64.59
35649;BME280;21768;48.562;13.414;2024-01-11T05:01:17;98292.13;;;-4.06;64.44
35649;BME280;21768;48.562;13.414;2024-01-11T05:03:44;98285.38;;;-4.01;64.37
35649;BME280;21768;48.562;13.414;2024-01-11T05:08:42;98287.84;;;-4.01;64.55
35649;BME280;21768;48.562;13.414;2024-01-11T05:11:07;98280.91;;;-4.04;64.43
35649;BME280;21768;48.562;13.414;2024-01-11T05:13:33;98276.69;;;-4.05;64.24
35649;BME280;21768;48.562;13.414;2024-01-11T05:15:58;98266.63;;;-4.06;64.25
35649;BME280;21768;48.562;13.414;2024-01-11T05:18:23;98273.53;;;-4.04;64.30
35649;BME280;21768;48.562;13.414;2024-01-11T05:20:49;98282.50;;;-4.04;64.20
35649;BME280;21768;48.562;13.414;2024-01-11T05:23:14;98290.34;;;-4.07;64.41
35649;BME280;21768;48.562;13.414;2024-01-11T05:25:39;98306.09;;;-4.12;64.21
35649;BME280;21768;48.562;13.414;2024-01-11T05:28:05;98296.91;;;-4.13;64.39
35649;BME280;21768;48.562;13.414;2024-01-11T05:30:30;98302.94;;;-4.11;64.21
35649;BME280;21768;48.562;13.414;2024-01-11T05:32:56;98306.03;;;-4.06;64.16
35649;BME280;21768;48.562;13.414;2024-01-11T05:35:22;98301.09;;;-4.06;64.34
35649;BME280;21768;48.562;13.414;2024-01-11T05:37:49;98304.66;;;-4.04;63.84
35649;BME280;21768;48.562;13.414;2024-01-11T05:40:15;98308.69;;;-4.05;64.03
35649;BME280;21768;48.562;13.414;2024-01-11T05:42:40;98302.75;;;-4.13;63.84
35649;BME280;21768;48.562;13.414;2024-01-11T05:45:06;98304.78;;;-4.16;63.85
35649;BME280;21768;48.562;13.414;2024-01-11T05:47:31;98304.47;;;-4.24;64.02
35649;BME280;21768;48.562;13.414;2024-01-11T05:49:56;98309.44;;;-4.30;64.28
35649;BME280;21768;48.562;13.414;2024-01-11T05:52:22;98322.22;;;-4.32;64.48
35649;BME280;21768;48.562;13.414;2024-01-11T05:54:47;98327.16;;;-4.32;64.42
35649;BME280;21768;48.562;13.414;2024-01-11T05:57:12;98325.31;;;-4.28;64.06
35649;BME280;21768;48.562;13.414;2024-01-11T05:59:43;98306.31;;;-4.29;64.40
35649;BME280;21768;48.562;13.414;2024-01-11T06:02:09;98317.97;;;-4.33;64.08
35649;BME280;21768;48.562;13.414;2024-01-11T06:04:34;98320.44;;;-4.33;64.15
35649;BME280;21768;48.562;13.414;2024-01-11T06:06:59;98324.28;;;-4.35;64.21
35649;BME280;21768;48.562;13.414;2024-01-11T06:09:25;98316.06;;;-4.41;64.19
35649;BME280;21768;48.562;13.414;2024-01-11T06:11:50;98318.50;;;-4.41;64.35
35649;BME280;21768;48.562;13.414;2024-01-11T06:14:16;98308.19;;;-4.39;64.26
35649;BME280;21768;48.562;13.414;2024-01-11T06:16:41;98320.72;;;-4.37;64.27
35649;BME280;21768;48.562;13.414;2024-01-11T06:19:07;98319.34;;;-4.35;64.57
35649;BME280;21768;48.562;13.414;2024-01-11T06:21:33;98313.13;;;-4.39;64.37
35649;BME280;21768;48.562;13.414;2024-01-11T06:23:59;98302.63;;;-4.43;64.60
35649;BME280;21768;48.562;13.414;2024-01-11T06:26:24;98308.25;;;-4.45;64.59
35649;BME280;21768;48.562;13.414;2024-01-11T06:28:49;98312.22;;;-4.39;64.56
35649;BME280;21768;48.562;13.414;2024-01-11T06:31:15;98311.28;;;-4.34;64.43
35649;BME280;21768;48.562;13.414;2024-01-11T06:33:40;98308.56;;;-4.30;64.40
35649;BME280;21768;48.562;13.414;2024-01-11T06:36:06;98311.03;;;-4.30;64.47
35649;BME280;21768;48.562;13.414;2024-01-11T06:38:33;98320.44;;;-4.33;64.31
35649;BME280;21768;48.562;13.414;2024-01-11T06:40:58;98335.00;;;-4.35;64.38
35649;BME280;21768;48.562;13.414;2024-01-11T06:43:23;98328.66;;;-4.27;64.55
35649;BME280;21768;48.562;13.414;2024-01-11T06:45:49;98321.69;;;-4.24;64.97
35649;BME280;21768;48.562;13.414;2024-01-11T06:48:14;98319.84;;;-4.20;64.69
35649;BME280;21768;48.562;13.414;2024-01-11T06:50:39;98330.31;;;-4.15;64.67
35649;BME280;21768;48.562;13.414;2024-01-11T06:53:05;98334.75;;;-4.13;64.54
35649;BME280;21768;48.562;13.414;2024-01-11T06:55:30;98327.53;;;-4.05;64.35
35649;BME280;21768;48.562;13.414;2024-01-11T06:57:56;98328.34;;;-3.99;64.22
35649;BME280;21768;48.562;13.414;2024-01-11T07:00:22;98322.13;;;-4.03;64.13
35649;BME280;21768;48.562;13.414;2024-01-11T07:02:48;98324.78;;;-4.01;64.17
35649;BME280;21768;48.562;13.414;2024-01-11T07:05:13;98333.50;;;-3.98;64.27
35649;BME280;21768;48.562;13.414;2024-01-11T07:07:38;98334.06;;;-3.93;64.20
35649;BME280;21768;48.562;13.414;2024-01-11T07:10:04;98337.56;;;-3.86;64.08
35649;BME280;21768;48.562;13.414;2024-01-11T07:12:31;98322.31;;;-3.83;63.96
35649;BME280;21768;48.562;13.414;2024-01-11T07:14:56;98317.16;;;-3.85;63.84
35649;BME280;21768;48.562;13.414;2024-01-11T07:17:21;98320.53;;;-3.84;63.73
35649;BME280;21768;48.562;13.414;2024-01-11T07:19:48;98317.16;;;-3.85;63.66
35649;BME280;21768;48.562;13.414;2024-01-11T07:22:13;98314.03;;;-3.84;63.71
35649;BME280;21768;48.562;13.414;2024-01-11T07:24:39;98327.19;;;-3.78;63.71
35649;BME280;21768;48.562;13.414;2024-01-11T07:27:05;98329.63;;;-3.78;63.83
35649;BME280;21768;48.562;13.414;2024-01-11T07:29:31;98330.72;;;-3.75;63.71
35649;BME280;21768;48.562;13.414;2024-01-11T07:31:56;98348.56;;;-3.71;63.64
35649;BME280;21768;48.562;13.414;2024-01-11T07:34:22;98347.50;;;-3.73;63.83
35649;BME280;21768;48.562;13.414;2024-01-11T07:36:47;98352.34;;;-3.67;63.64
35649;BME280;21768;48.562;13.414;2024-01-11T07:39:13;98369.81;;;-3.66;63.68
35649;BME280;21768;48.562;13.414;2024-01-11T07:41:38;98372.22;;;-3.60;63.48
35649;BME280;21768;48.562;13.414;2024-01-11T07:44:03;98368.09;;;-3.54;63.45
35649;BME280;21768;48.562;13.414;2024-01-11T07:46:29;98370.56;;;-3.54;63.75
35649;BME280;21768;48.562;13.414;2024-01-11T07:48:55;98370.56;;;-3.54;63.46
35649;BME280;21768;48.562;13.414;2024-01-11T07:51:20;98366.72;;;-3.52;63.34
35649;BME280;21768;48.562;13.414;2024-01-11T07:53:45;98381.94;;;-3.49;63.42
35649;BME280;21768;48.562;13.414;2024-01-11T07:56:11;98395.75;;;-3.44;63.66
35649;BME280;21768;48.562;13.414;2024-01-11T07:58:36;98400.59;;;-3.38;63.46
35649;BME280;21768;48.562;13.414;2024-01-11T08:01:03;98402.31;;;-3.32;63.51
35649;BME280;21768;48.562;13.414;2024-01-11T08:03:29;98397.63;;;-3.18;63.24
35649;BME280;21768;48.562;13.414;2024-01-11T08:05:55;98394.53;;;-3.04;62.84
35649;BME280;21768;48.562;13.414;2024-01-11T08:08:20;98402.22;;;-2.95;62.87
35649;BME280;21768;48.562;13.414;2024-01-11T08:10:47;98410.44;;;-2.89;62.92
35649;BME280;21768;48.562;13.414;2024-01-11T08:13:13;98415.09;;;-2.85;62.97
35649;BME280;21768;48.562;13.414;2024-01-11T08:15:39;98411.56;;;-2.75;62.87
35649;BME280;21768;48.562;13.414;2024-01-11T08:18:04;98408.31;;;-2.68;62.69
35649;BME280;21768;48.562;13.414;2024-01-11T08:20:30;98406.44;;;-2.76;62.72
35649;BME280;21768;48.562;13.414;2024-01-11T08:22:55;98412.75;;;-2.78;62.81
35649;BME280;21768;48.562;13.414;2024-01-11T08:25:21;98418.97;;;-2.75;62.73
35649;BME280;21768;48.562;13.414;2024-01-11T08:27:48;98412.16;;;-2.70;62.80
35649;BME280;21768;48.562;13.414;2024-01-11T08:30:13;98404.84;;;-2.63;62.72
35649;BME280;21768;48.562;13.414;2024-01-11T08:32:39;98407.72;;;-2.47;62.41
35649;BME280;21768;48.562;13.414;2024-01-11T08:35:08;98407.34;;;-2.37;62.47
35649;BME280;21768;48.562;13.414;2024-01-11T08:37:35;98402.44;;;-2.25;62.51
35649;BME280;21768;48.562;13.414;2024-01-11T08:40:00;98380.56;;;-2.22;62.52
35649;BME280;21768;48.562;13.414;2024-01-11T08:42:26;98378.88;;;-2.16;62.42
35649;BME280;21768;48.562;13.414;2024-01-11T08:44:51;98379.19;;;-2.07;62.48
35649;BME280;21768;48.562;13.414;2024-01-11T08:47:18;98389.34;;;-1.98;62.63
35649;BME280;21768;48.562;13.414;2024-01-11T08:49:43;98393.06;;;-1.82;62.61
35649;BME280;21768;48.562;13.414;2024-01-11T08:52:09;98403.13;;;-1.68;62.34
35649;BME280;21768;48.562;13.414;2024-01-11T08:54:34;98395.38;;;-1.51;62.31
35649;BME280;21768;48.562;13.414;2024-01-11T08:57:00;98393.94;;;-1.37;62.37
35649;BME280;21768;48.562;13.414;2024-01-11T08:59:25;98396.22;;;-1.18;62.04
35649;BME280;21768;48.562;13.414;2024-01-11T09:01:53;98402.31;;;-1.09;61.91
35649;BME280;21768;48.562;13.414;2024-01-11T09:04:19;98416.03;;;-0.98;61.92
35649;BME280;21768;48.562;13.414;2024-01-11T09:06:44;98421.00;;;-0.79;61.68
35649;BME280;21768;48.562;13.414;2024-01-11T09:09:13;98402.38;;;-0.36;61.28
35649;BME280;21768;48.562;13.414;2024-01-11T09:11:40;98407.81;;;-0.11;60.86
35649;BME280;21768;48.562;13.414;2024-01-11T09:14:08;98415.78;;;0.20;60.11
35649;BME280;21768;48.562;13.414;2024-01-11T09:16:37;98402.88;;;1.35;58.19
35649;BME280;21768;48.562;13.414;2024-01-11T09:19:04;98398.16;;;2.76;55.12
35649;BME280;21768;48.562;13.414;2024-01-11T09:21:30;98412.09;;;3.65;53.03
35649;BME280;21768;48.562;13.414;2024-01-11T09:23:55;98401.75;;;4.17;51.84
35649;BME280;21768;48.562;13.414;2024-01-11T09:26:20;98396.28;;;4.68;50.66
35649;BME280;21768;48.562;13.414;2024-01-11T09:28:47;98377.88;;;5.40;49.05
35649;BME280;21768;48.562;13.414;2024-01-11T09:31:13;98367.16;;;6.26;47.11
35649;BME280;21768;48.562;13.414;2024-01-11T09:33:38;98357.13;;;7.23;44.97
35649;BME280;21768;48.562;13.414;2024-01-11T09:36:04;98345.09;;;7.92;43.69
35649;BME280;21768;48.562;13.414;2024-01-11T09:38:29;98345.38;;;7.95;42.51
35649;BME280;21768;48.562;13.414;2024-01-11T09:41:06;98346.34;;;8.06;42.45
35649;BME280;21768;48.562;13.414;2024-01-11T09:43:34;98338.69;;;8.61;41.89
35649;BME280;21768;48.562;13.414;2024-01-11T09:46:03;98339.31;;;8.87;41.30
35649;BME280;21768;48.562;13.414;2024-01-11T09:48:32;98334.97;;;9.54;39.81
35649;BME280;21768;48.562;13.414;2024-01-11T09:50:59;98330.44;;;10.01;39.47
35649;BME280;21768;48.562;13.414;2024-01-11T09:53:26;98336.38;;;10.11;38.85
35649;BME280;21768;48.562;13.414;2024-01-11T09:55:53;98334.22;;;10.26;38.67
35649;BME280;21768;48.562;13.414;2024-01-11T09:58:21;98326.25;;;10.84;37.80
35649;BME280;21768;48.562;13.414;2024-01-11T10:00:48;98327.88;;;11.15;36.79
35649;BME280;21768;48.562;13.414;2024-01-11T10:03:16;98327.88;;;10.41;37.60
35649;BME280;21768;48.562;13.414;2024-01-11T10:05:41;98340.69;;;8.94;39.75
35649;BME280;21768;48.562;13.414;2024-01-11T10:08:08;98352.88;;;7.76;41.65
35649;BME280;21768;48.562;13.414;2024-01-11T10:10:33;98340.81;;;7.00;43.22
35649;BME280;21768;48.562;13.414;2024-01-11T10:12:59;98343.28;;;6.21;44.13
35649;BME280;21768;48.562;13.414;2024-01-11T10:15:24;98345.84;;;5.62;45.04
35649;BME280;21768;48.562;13.414;2024-01-11T10:17:49;98342.56;;;5.55;45.99
35649;BME280;21768;48.562;13.414;2024-01-11T10:20:15;98346.63;;;5.87;45.55
35649;BME280;21768;48.562;13.414;2024-01-11T10:22:43;98337.66;;;5.98;44.42
35649;BME280;21768;48.562;13.414;2024-01-11T10:25:16;98334.59;;;6.35;43.47
35649;BME280;21768;48.562;13.414;2024-01-11T10:27:44;98353.75;;;6.08;43.90
35649;BME280;21768;48.562;13.414;2024-01-11T10:30:11;98355.50;;;5.42;45.34
35649;BME280;21768;48.562;13.414;2024-01-11T10:32:38;98339.56;;;5.33;45.91
35649;BME280;21768;48.562;13.414;2024-01-11T10:35:04;98331.47;;;5.94;44.62
35649;BME280;21768;48.562;13.414;2024-01-11T10:37:32;98332.09;;;6.26;43.96
35649;BME280;21768;48.562;13.414;2024-01-11T10:40:02;98327.34;;;6.64;43.60
35649;BME280;21768;48.562;13.414;2024-01-11T10:42:30;98333.41;;;7.10;42.67
35649;BME280;21768;48.562;13.414;2024-01-11T10:44:59;98337.44;;;7.36;42.22
35649;BME280;21768;48.562;13.414;2024-01-11T10:47:30;98326.69;;;7.64;42.04
35649;BME280;21768;48.562;13.414;2024-01-11T10:49:57;98316.41;;;7.44;42.36
35649;BME280;21768;48.562;13.414;2024-01-11T10:52:28;98327.97;;;7.42;42.68
35649;BME280;21768;48.562;13.414;2024-01-11T10:54:59;98314.50;;;8.81;40.85
35649;BME280;21768;48.562;13.414;2024-01-11T10:57:27;98328.28;;;10.05;38.59
35649;BME280;21768;48.562;13.414;2024-01-11T10:59:53;98329.06;;;11.09;37.15
35649;BME280;21768;48.562;13.414;2024-01-11T11:02:20;98332.28;;;11.62;36.03
35649;BME280;21768;48.562;13.414;2024-01-11T11:04:46;98319.00;;;11.98;35.57
35649;BME280;21768;48.562;13.414;2024-01-11T11:07:14;98303.63;;;12.65;34.02
35649;BME280;21768;48.562;13.414;2024-01-11T11:09:41;98287.69;;;13.14;33.06
35649;BME280;21768;48.562;13.414;2024-01-11T11:12:10;98274.59;;;13.56;32.66
35649;BME280;21768;48.562;13.414;2024-01-11T11:14:36;98273.94;;;14.10;31.74
35649;BME280;21768;48.562;13.414;2024-01-11T11:17:03;98275.84;;;14.52;31.05
35649;BME280;21768;48.562;13.414;2024-01-11T11:19:29;98263.81;;;14.49;31.05
35649;BME280;21768;48.562;13.414;2024-01-11T11:21:55;98273.16;;;14.90;30.26
35649;BME280;21768;48.562;13.414;2024-01-11T11:24:20;98267.97;;;14.88;30.43
35649;BME280;21768;48.562;13.414;2024-01-11T11:26:46;98267.28;;;14.91;29.97
35649;BME280;21768;48.562;13.414;2024-01-11T11:29:12;98266.88;;;14.57;30.33
35649;BME280;21768;48.562;13.414;2024-01-11T11:31:41;98281.88;;;14.80;30.31
35649;BME280;21768;48.562;13.414;2024-01-11T11:34:07;98284.63;;;14.70;29.61
35649;BME280;21768;48.562;13.414;2024-01-11T11:36:36;98280.91;;;14.65;30.04
35649;BME280;21768;48.562;13.414;2024-01-11T11:39:02;98282.91;;;14.97;29.52
35649;BME280;21768;48.562;13.414;2024-01-11T11:41:30;98281.84;;;15.07;29.29
35649;BME280;21768;48.562;13.414;2024-01-11T11:44:00;98288.09;;;14.98;29.97
35649;BME280;21768;48.562;13.414;2024-01-11T11:46:26;98264.75;;;15.32;28.37
35649;BME280;21768;48.562;13.414;2024-01-11T11:48:52;98270.84;;;15.91;27.31
35649;BME280;21768;48.562;13.414;2024-01-11T11:51:21;98270.09;;;15.64;27.26
35649;BME280;21768;48.562;13.414;2024-01-11T11:53:48;98286.09;;;14.53;28.80
35649;BME280;21768;48.562;13.414;2024-01-11T11:56:16;98282.75;;;13.52;29.71
35649;BME280;21768;48.562;13.414;2024-01-11T11:58:42;98286.47;;;12.14;31.06
35649;BME280;21768;48.562;13.414;2024-01-11T12:01:08;98273.91;;;11.80;32.20
35649;BME280;21768;48.562;13.414;2024-01-11T12:03:35;98260.06;;;12.45;31.76
35649;BME280;21768;48.562;13.414;2024-01-11T12:06:03;98264.88;;;13.75;29.71
35649;BME280;21768;48.562;13.414;2024-01-11T12:08:29;98266.50;;;14.13;29.17
35649;BME280;21768;48.562;13.414;2024-01-11T12:10:54;98260.84;;;13.66;29.15
35649;BME280;21768;48.562;13.414;2024-01-11T12:13:20;98267.53;;;13.52;30.34
35649;BME280;21768;48.562;13.414;2024-01-11T12:15:46;98251.06;;;13.83;30.10
35649;BME280;21768;48.562;13.414;2024-01-11T12:18:11;98249.84;;;14.43;29.36
35649;BME280;21768;48.562;13.414;2024-01-11T12:20:36;98247.53;;;14.87;27.99
35649;BME280;21768;48.562;13.414;2024-01-11T12:23:02;98242.13;;;14.81;28.10
35649;BME280;21768;48.562;13.414;2024-01-11T12:25:28;98242.88;;;14.40;28.43
35649;BME280;21768;48.562;13.414;2024-01-11T12:27:54;98241.38;;;13.91;28.96
35649;BME280;21768;48.562;13.414;2024-01-11T12:30:22;98242.41;;;13.55;29.30
35649;BME280;21768;48.562;13.414;2024-01-11T12:32:49;98237.00;;;13.88;28.95
35649;BME280;21768;48.562;13.414;2024-01-11T12:35:15;98243.47;;;14.23;29.07
35649;BME280;21768;48.562;13.414;2024-01-11T12:37:40;98249.81;;;15.10;28.20
35649;BME280;21768;48.562;13.414;2024-01-11T12:40:06;98246.41;;;15.65;27.74
35649;BME280;21768;48.562;13.414;2024-01-11T12:42:35;98234.84;;;16.00;26.12
35649;BME280;21768;48.562;13.414;2024-01-11T12:45:00;98227.72;;;15.65;26.54
35649;BME280;21768;48.562;13.414;2024-01-11T12:47:26;98210.78;;;15.65;26.78